Annapolis, Washington
Current Conditions -  °F | °C
As of 11:35 AM on Friday 31 Oct 2014 (Local Time) from KPWT Reporting Station
Overcast Overcast  
Wind Chill: 10°   Ceiling: 600
Heat Index: 10°   Visibility: 9mi
Dew Point:   Wind: 7mph
Humidity: 94%   Direction: 180°S
Pressure: 29.83"   Gusts: NA
Location:  47.5378°N, 122.589°W
Report Text: KPWT 311835Z AUTO 18006KT 9SM BKN006 OVC016 10/09 A2983 RMK AO1 P0002
Loading
Personal Weather Stations






























Interactive Weather Map
Tropical Storm Tracking
New forecast layout! Learn more

10-Day Weather Forecast

Advertisements
Track Severe Weather on mobile